Time;durP1;ratioP1;P1;durP2;ratioP2;P2;SDS_P1;SDS_P2;PMS_P1;PMS_P2;Temp;Humidity;BMP_temperature;BMP_pressure;BME280_temperature;BME280_humidity;BME280_pressure;Samples;Min_cycle;Max_cycle;Signal;HPM_P1;HPM_P2
2021/07/11 00:01:04;;;;;;;5.38;2.72;;;22.60;60.70;;;;;;5033737;28;20064;-75
2021/07/11 00:03:30;;;;;;;5.30;3.00;;;22.60;60.80;;;;;;5033703;28;20079;-75
2021/07/11 00:05:56;;;;;;;4.93;2.65;;;22.60;60.70;;;;;;5033918;28;20039;-74
2021/07/11 00:08:21;;;;;;;5.90;2.63;;;22.60;60.80;;;;;;5033848;28;20108;-75
2021/07/11 00:10:47;;;;;;;5.68;3.00;;;22.60;60.80;;;;;;5033940;28;20032;-74
2021/07/11 00:13:12;;;;;;;6.05;2.90;;;22.60;60.80;;;;;;5033636;28;20465;-74
2021/07/11 00:15:38;;;;;;;5.22;3.00;;;22.60;60.80;;;;;;5033693;28;20049;-74
2021/07/11 00:18:04;;;;;;;10.00;3.15;;;22.60;60.80;;;;;;5034159;28;20033;-74
2021/07/11 00:20:30;;;;;;;5.25;3.05;;;22.60;60.80;;;;;;5034013;28;20029;-73
2021/07/11 00:22:56;;;;;;;5.57;2.83;;;22.60;60.90;;;;;;5033639;28;20048;-73
2021/07/11 00:25:21;;;;;;;5.30;3.20;;;22.60;60.80;;;;;;5033426;28;20103;-74
2021/07/11 00:27:47;;;;;;;6.47;3.22;;;22.60;60.90;;;;;;5033469;28;20457;-75
2021/07/11 00:30:14;;;;;;;5.03;2.90;;;22.50;60.90;;;;;;5033279;28;20029;-74
2021/07/11 00:32:40;;;;;;;5.97;2.53;;;22.60;60.90;;;;;;5032954;28;20497;-74
2021/07/11 00:35:07;;;;;;;5.03;2.60;;;22.60;60.90;;;;;;5033373;28;20037;-74
2021/07/11 00:37:32;;;;;;;5.78;3.00;;;22.50;60.90;;;;;;5033394;28;20389;-74
2021/07/11 00:39:58;;;;;;;5.70;3.20;;;22.50;60.90;;;;;;5033335;28;20033;-74
2021/07/11 00:42:23;;;;;;;5.53;2.95;;;22.50;61.00;;;;;;5033098;28;20473;-74
2021/07/11 00:44:49;;;;;;;4.97;3.03;;;22.50;61.00;;;;;;5032980;28;20103;-74
2021/07/11 00:47:15;;;;;;;4.47;2.65;;;22.50;61.00;;;;;;5033060;28;20208;-74
2021/07/11 00:49:44;;;;;;;5.28;3.10;;;22.50;60.90;;;;;;5033038;28;20108;-74
2021/07/11 00:52:10;;;;;;;4.20;2.33;;;22.50;61.00;;;;;;5033091;28;20026;-74
2021/07/11 00:54:36;;;;;;;5.50;2.90;;;22.50;61.00;;;;;;5033087;28;20021;-74
2021/07/11 00:57:02;;;;;;;4.60;2.60;;;22.50;61.00;;;;;;5032945;28;20389;-74
2021/07/11 00:59:28;;;;;;;12.45;3.08;;;22.50;61.00;;;;;;5032850;28;20076;-74
2021/07/11 01:02:09;;;;;;;4.97;2.88;;;22.50;61.10;;;;;;5032783;28;20520;-74
2021/07/11 01:05:01;;;;;;;4.93;2.90;;;22.50;61.00;;;;;;5032857;28;20026;-74
2021/07/11 01:07:50;;;;;;;5.10;2.70;;;22.50;61.10;;;;;;5032728;28;20039;-74
2021/07/11 01:10:25;;;;;;;4.72;2.75;;;22.50;61.20;;;;;;5033137;28;20389;-74
2021/07/11 01:12:54;;;;;;;4.75;2.70;;;22.50;61.20;;;;;;5032661;28;20095;-74
2021/07/11 01:15:20;;;;;;;5.35;3.05;;;22.50;61.20;;;;;;5032741;28;20014;-74
2021/07/11 01:17:46;;;;;;;4.32;3.00;;;22.50;61.10;;;;;;5032919;28;20079;-74
2021/07/11 01:20:28;;;;;;;5.05;3.10;;;22.50;61.10;;;;;;5032567;28;20425;-74
2021/07/11 01:22:56;;;;;;;4.95;3.15;;;22.50;61.10;;;;;;5032645;28;20525;-73
2021/07/11 01:25:34;;;;;;;6.03;3.00;;;22.50;61.30;;;;;;5032687;28;20148;-74
2021/07/11 01:28:01;;;;;;;4.25;2.70;;;22.50;61.20;;;;;;5032730;28;20022;-73
2021/07/11 01:30:28;;;;;;;4.80;2.97;;;22.50;61.10;;;;;;5034173;28;20029;-73
2021/07/11 01:32:54;;;;;;;5.97;3.08;;;22.40;61.30;;;;;;5037396;28;20149;-73
2021/07/11 01:35:20;;;;;;;4.40;2.70;;;22.50;61.20;;;;;;5037952;28;20445;-73
2021/07/11 01:37:45;;;;;;;5.50;3.00;;;22.40;61.30;;;;;;5036830;28;20032;-73
2021/07/11 01:40:12;;;;;;;5.22;2.88;;;22.40;61.40;;;;;;5036830;28;20037;-73
2021/07/11 01:42:39;;;;;;;8.25;2.90;;;22.40;61.30;;;;;;5036564;28;20029;-73
2021/07/11 01:45:06;;;;;;;4.40;2.72;;;22.50;61.30;;;;;;5036554;28;20057;-73
2021/07/11 01:47:33;;;;;;;5.38;3.10;;;22.40;61.40;;;;;;5036535;28;20469;-73
2021/07/11 01:50:00;;;;;;;4.25;2.78;;;22.40;61.40;;;;;;5036311;28;20038;-73
2021/07/11 01:52:26;;;;;;;4.70;2.78;;;22.40;61.40;;;;;;5036141;28;20074;-73
2021/07/11 01:54:52;;;;;;;5.20;3.13;;;22.40;61.40;;;;;;5036168;28;20358;-73
2021/07/11 01:57:18;;;;;;;4.72;2.85;;;22.40;61.40;;;;;;5036125;28;20025;-73
2021/07/11 01:59:44;;;;;;;5.55;2.78;;;22.40;61.40;;;;;;5036251;28;20026;-73
2021/07/11 02:02:09;;;;;;;5.22;3.20;;;22.40;61.40;;;;;;5036077;28;20045;-73
2021/07/11 02:04:35;;;;;;;5.35;3.10;;;22.40;61.40;;;;;;5035942;28;20032;-73
2021/07/11 02:07:00;;;;;;;4.00;2.42;;;22.40;61.40;;;;;;5036552;28;20021;-73
2021/07/11 02:09:26;;;;;;;5.40;2.72;;;22.40;61.30;;;;;;5038098;28;20418;-73
2021/07/11 02:11:51;;;;;;;5.43;2.95;;;22.40;61.30;;;;;;5036181;28;20128;-73
2021/07/11 02:14:22;;;;;;;4.88;3.03;;;22.40;61.50;;;;;;5035834;28;20021;-73
2021/07/11 02:17:02;;;;;;;4.50;2.75;;;22.40;61.40;;;;;;5035728;28;20022;-73
2021/07/11 02:19:28;;;;;;;3.67;2.35;;;22.40;61.50;;;;;;5035704;28;20021;-73
2021/07/11 02:21:54;;;;;;;5.55;3.20;;;22.30;61.50;;;;;;5035719;28;20044;-73
2021/07/11 02:24:21;;;;;;;5.07;2.53;;;22.30;61.50;;;;;;5035919;28;20028;-74
2021/07/11 02:26:47;;;;;;;5.03;2.80;;;22.30;61.50;;;;;;5035531;28;20484;-73
2021/07/11 02:29:13;;;;;;;4.57;2.90;;;22.40;61.50;;;;;;5035766;28;20433;-73
2021/07/11 02:31:41;;;;;;;4.00;2.53;;;22.40;61.50;;;;;;5035528;28;20068;-72
2021/07/11 02:34:09;;;;;;;4.50;2.70;;;22.40;61.60;;;;;;5035378;28;20049;-73
2021/07/11 02:36:35;;;;;;;5.65;3.15;;;22.30;61.60;;;;;;5035485;28;20108;-73
2021/07/11 02:39:13;;;;;;;4.70;2.95;;;22.30;61.50;;;;;;5035422;28;20045;-73
2021/07/11 02:41:45;;;;;;;5.53;3.05;;;22.30;61.60;;;;;;5034659;28;20397;-73
2021/07/11 02:44:13;;;;;;;5.00;2.92;;;22.30;61.60;;;;;;5034991;28;20485;-73
2021/07/11 02:46:42;;;;;;;4.53;2.60;;;22.30;61.50;;;;;;5035265;28;20037;-73
2021/07/11 02:49:15;;;;;;;6.75;3.03;;;22.30;61.60;;;;;;5035094;28;20026;-73
2021/07/11 02:51:51;;;;;;;5.13;2.55;;;22.30;61.50;;;;;;5035183;28;20029;-73
2021/07/11 02:54:22;;;;;;;4.03;2.50;;;22.30;61.50;;;;;;5035303;28;20108;-74
2021/07/11 02:56:51;;;;;;;4.65;2.70;;;22.30;61.50;;;;;;5035102;28;20534;-74
2021/07/11 02:59:17;;;;;;;5.03;2.58;;;22.40;61.50;;;;;;5035187;28;20030;-73
2021/07/11 03:01:44;;;;;;;4.97;2.70;;;22.30;61.50;;;;;;5035309;28;20086;-73
2021/07/11 03:04:13;;;;;;;5.32;3.00;;;22.30;61.60;;;;;;5036293;28;20021;-73
2021/07/11 03:06:38;;;;;;;5.40;2.95;;;22.30;61.60;;;;;;5039665;28;20115;-73
2021/07/11 03:09:05;;;;;;;4.78;2.63;;;22.30;61.60;;;;;;5035082;28;20084;-73
2021/07/11 03:11:42;;;;;;;4.63;2.78;;;22.30;61.60;;;;;;5034772;28;20104;-73
2021/07/11 03:14:10;;;;;;;5.20;2.95;;;22.30;61.70;;;;;;5034864;28;20025;-73
2021/07/11 03:16:40;;;;;;;5.10;2.67;;;22.30;61.60;;;;;;5034530;28;20485;-73
2021/07/11 03:19:06;;;;;;;5.22;2.88;;;22.30;61.60;;;;;;5034657;28;20033;-73
2021/07/11 03:21:33;;;;;;;6.03;2.67;;;22.30;61.60;;;;;;5033349;28;20408;-73
2021/07/11 03:24:01;;;;;;;4.43;2.65;;;22.30;61.60;;;;;;5034633;28;20052;-73
2021/07/11 03:26:29;;;;;;;5.13;2.78;;;22.30;61.60;;;;;;5034585;28;20021;-73
2021/07/11 03:28:55;;;;;;;5.05;3.03;;;22.30;61.70;;;;;;5034490;28;20485;-73
2021/07/11 03:31:22;;;;;;;4.93;2.97;;;22.30;61.70;;;;;;5034602;28;20104;-72
2021/07/11 03:33:53;;;;;;;5.25;2.97;;;22.30;61.70;;;;;;5034192;28;20115;-73
2021/07/11 03:36:20;;;;;;;6.25;3.20;;;22.30;61.70;;;;;;5034440;28;20105;-72
2021/07/11 03:38:56;;;;;;;4.50;2.65;;;22.30;61.60;;;;;;5034239;28;20088;-73
2021/07/11 03:41:26;;;;;;;4.88;2.80;;;22.30;61.60;;;;;;5034445;28;20047;-73
2021/07/11 03:43:54;;;;;;;5.22;3.10;;;22.30;61.60;;;;;;5034192;28;20055;-73
2021/07/11 03:46:24;;;;;;;4.82;2.65;;;22.30;61.60;;;;;;5034185;28;20049;-73
2021/07/11 03:48:57;;;;;;;5.18;2.72;;;22.30;61.70;;;;;;5034090;28;20044;-73
2021/07/11 03:51:32;;;;;;;4.60;2.83;;;22.30;61.70;;;;;;5037182;28;20108;-73
2021/07/11 03:54:00;;;;;;;4.88;2.70;;;22.30;61.70;;;;;;5033897;28;20380;-73
2021/07/11 03:56:32;;;;;;;5.22;3.25;;;22.20;61.70;;;;;;5041312;28;20060;-73
2021/07/11 03:58:59;;;;;;;5.82;3.13;;;22.30;61.70;;;;;;5041095;28;20097;-73
2021/07/11 04:01:29;;;;;;;4.72;2.67;;;22.20;61.70;;;;;;5042088;28;20048;-73
2021/07/11 04:03:57;;;;;;;5.50;3.10;;;22.20;61.60;;;;;;5042786;28;20032;-73
2021/07/11 04:06:26;;;;;;;4.55;2.72;;;22.20;61.70;;;;;;5042957;28;20048;-74
2021/07/11 04:08:54;;;;;;;5.53;2.83;;;22.20;61.70;;;;;;5042659;28;20037;-73
2021/07/11 04:11:20;;;;;;;7.65;3.13;;;22.20;61.70;;;;;;5042016;28;20076;-73
2021/07/11 04:13:46;;;;;;;5.07;2.90;;;22.20;61.70;;;;;;5041970;28;20469;-73
2021/07/11 04:16:14;;;;;;;5.18;3.20;;;22.20;61.80;;;;;;5043027;28;20017;-73
2021/07/11 04:18:43;;;;;;;4.55;2.70;;;22.20;61.90;;;;;;5041183;28;20025;-74
2021/07/11 04:21:11;;;;;;;6.13;3.13;;;22.20;61.80;;;;;;5035631;28;20065;-74
2021/07/11 04:23:38;;;;;;;5.40;3.28;;;22.20;61.70;;;;;;5036282;28;20022;-74
2021/07/11 04:26:04;;;;;;;5.72;3.35;;;22.20;61.80;;;;;;5041704;28;20021;-74
2021/07/11 04:28:33;;;;;;;4.88;2.92;;;22.20;61.90;;;;;;5050556;28;20028;-74
2021/07/11 04:31:00;;;;;;;4.95;2.97;;;22.20;61.80;;;;;;5051760;28;20096;-74
2021/07/11 04:33:27;;;;;;;5.57;3.28;;;22.20;61.80;;;;;;5048327;28;20042;-74
2021/07/11 04:35:53;;;;;;;5.30;3.10;;;22.20;61.80;;;;;;5046483;28;20488;-74
2021/07/11 04:38:18;;;;;;;4.82;2.63;;;22.20;61.80;;;;;;5047832;28;20041;-74
2021/07/11 04:40:44;;;;;;;5.47;3.17;;;22.20;61.80;;;;;;5043692;28;20044;-73
2021/07/11 04:43:09;;;;;;;7.88;3.40;;;22.20;61.80;;;;;;5044115;28;20026;-73
2021/07/11 04:45:35;;;;;;;5.28;3.05;;;22.20;61.80;;;;;;5043893;28;20081;-73
2021/07/11 04:48:00;;;;;;;5.25;2.80;;;22.20;61.90;;;;;;5036344;28;20021;-73
2021/07/11 04:50:26;;;;;;;6.38;2.92;;;22.20;61.90;;;;;;5033193;28;20025;-73
2021/07/11 04:52:52;;;;;;;6.15;3.67;;;22.20;61.80;;;;;;5033020;28;20067;-73
2021/07/11 04:55:17;;;;;;;4.57;2.80;;;22.20;61.80;;;;;;5033061;28;20453;-73
2021/07/11 04:57:43;;;;;;;5.50;2.88;;;22.20;61.80;;;;;;5033003;28;20106;-73
2021/07/11 05:00:12;;;;;;;5.35;2.80;;;22.20;61.90;;;;;;5033047;28;20045;-73
2021/07/11 05:02:38;;;;;;;6.32;3.38;;;22.20;61.90;;;;;;5033280;28;20030;-73
2021/07/11 05:05:05;;;;;;;5.53;2.97;;;22.20;61.80;;;;;;5032609;28;20021;-73
2021/07/11 05:07:31;;;;;;;7.60;2.97;;;22.10;61.80;;;;;;5033669;28;20030;-73
2021/07/11 05:09:57;;;;;;;5.80;2.97;;;22.10;61.80;;;;;;5033275;28;20021;-72
2021/07/11 05:12:22;;;;;;;5.40;3.00;;;22.20;61.80;;;;;;5032906;28;20029;-73
2021/07/11 05:14:48;;;;;;;5.72;3.22;;;22.20;61.90;;;;;;5033253;28;20495;-73
2021/07/11 05:17:14;;;;;;;7.13;2.78;;;22.20;61.90;;;;;;5033465;28;20021;-74
2021/07/11 05:19:39;;;;;;;6.93;2.80;;;22.10;61.90;;;;;;5033067;28;20071;-73
2021/07/11 05:22:05;;;;;;;5.85;3.10;;;22.20;61.80;;;;;;5033575;28;20021;-74
2021/07/11 05:24:33;;;;;;;5.10;2.95;;;22.20;61.80;;;;;;5033551;28;20469;-74
2021/07/11 05:26:59;;;;;;;4.90;2.97;;;22.20;61.90;;;;;;5033157;28;20029;-74
2021/07/11 05:29:25;;;;;;;5.32;3.17;;;22.10;61.90;;;;;;5032752;28;20064;-74
2021/07/11 05:31:50;;;;;;;5.40;3.15;;;22.20;61.90;;;;;;5032588;28;20026;-74
2021/07/11 05:34:16;;;;;;;5.55;3.20;;;22.20;61.90;;;;;;5032607;28;20045;-74
2021/07/11 05:36:41;;;;;;;7.75;3.47;;;22.20;61.90;;;;;;5033003;28;20045;-74
2021/07/11 05:39:07;;;;;;;5.00;2.70;;;22.10;61.90;;;;;;5032904;28;20473;-73
2021/07/11 05:41:32;;;;;;;8.57;3.88;;;22.10;61.90;;;;;;5032658;28;20473;-74
2021/07/11 05:43:59;;;;;;;6.88;3.20;;;22.10;61.90;;;;;;5032592;28;20022;-73
2021/07/11 05:46:25;;;;;;;7.45;2.95;;;22.10;61.90;;;;;;5032520;28;20083;-74
2021/07/11 05:48:51;;;;;;;6.55;3.35;;;22.10;61.90;;;;;;5032646;28;20021;-73
2021/07/11 05:51:16;;;;;;;6.25;3.28;;;22.10;61.90;;;;;;5032576;28;20036;-74
2021/07/11 05:53:42;;;;;;;5.80;3.50;;;22.10;61.90;;;;;;5032922;28;20473;-73
2021/07/11 05:56:07;;;;;;;6.88;3.65;;;22.10;61.80;;;;;;5032561;28;20025;-74
2021/07/11 05:58:33;;;;;;;8.45;3.22;;;22.10;62.00;;;;;;5032334;28;20036;-74
2021/07/11 06:00:59;;;;;;;8.98;3.10;;;22.10;61.90;;;;;;5032246;28;20389;-74
2021/07/11 06:03:24;;;;;;;6.10;2.88;;;22.10;61.90;;;;;;5032272;28;20080;-73
2021/07/11 06:05:50;;;;;;;9.63;3.20;;;22.10;61.90;;;;;;5032463;28;20403;-74
2021/07/11 06:08:15;;;;;;;6.63;3.28;;;22.20;61.80;;;;;;5032548;28;20017;-74
2021/07/11 06:10:41;;;;;;;10.02;3.33;;;22.10;61.90;;;;;;5032237;28;20037;-74
2021/07/11 06:13:07;;;;;;;8.23;3.40;;;22.10;61.90;;;;;;5030977;28;20018;-74
2021/07/11 06:15:32;;;;;;;6.20;3.22;;;22.10;61.90;;;;;;5032332;28;20048;-74
2021/07/11 06:17:58;;;;;;;5.93;3.28;;;22.10;61.90;;;;;;5035276;28;20400;-74
2021/07/11 06:20:24;;;;;;;6.13;3.55;;;22.10;61.90;;;;;;5035526;28;20559;-74
2021/07/11 06:22:50;;;;;;;6.88;3.20;;;22.10;61.90;;;;;;5035873;28;20025;-74
2021/07/11 06:25:16;;;;;;;5.13;3.10;;;22.10;61.90;;;;;;5036055;28;20059;-74
2021/07/11 06:27:42;;;;;;;5.75;3.33;;;22.10;61.90;;;;;;5037857;28;20056;-74
2021/07/11 06:30:15;;;;;;;5.70;3.65;;;22.10;61.90;;;;;;5038576;28;20437;-74
2021/07/11 06:32:42;;;;;;;8.85;3.13;;;22.10;62.00;;;;;;5035392;28;20049;-74
2021/07/11 06:35:11;;;;;;;6.07;3.25;;;22.10;61.90;;;;;;5035448;28;20373;-74
2021/07/11 06:37:37;;;;;;;9.82;3.80;;;22.10;62.00;;;;;;5035354;28;20120;-73
2021/07/11 06:40:04;;;;;;;5.80;3.22;;;22.10;62.00;;;;;;5035297;28;20115;-74
2021/07/11 06:42:30;;;;;;;5.55;3.03;;;22.10;62.00;;;;;;5035403;28;20055;-74
2021/07/11 06:44:56;;;;;;;5.13;3.40;;;22.10;62.00;;;;;;5036298;28;20059;-74
2021/07/11 06:47:22;;;;;;;6.22;3.50;;;22.10;61.90;;;;;;5036614;28;20108;-74
2021/07/11 06:49:47;;;;;;;6.35;3.05;;;22.10;62.00;;;;;;5044130;28;20030;-74
2021/07/11 06:52:13;;;;;;;5.22;3.20;;;22.10;62.00;;;;;;5035306;28;20449;-74
2021/07/11 06:54:38;;;;;;;6.57;3.22;;;22.10;62.00;;;;;;5033991;28;20022;-74
2021/07/11 06:57:05;;;;;;;5.82;3.50;;;22.10;62.00;;;;;;5035516;28;20037;-74
2021/07/11 06:59:31;;;;;;;5.15;3.13;;;22.10;61.90;;;;;;5035350;28;20021;-74
2021/07/11 07:01:56;;;;;;;5.35;3.33;;;22.10;62.00;;;;;;5035104;28;20487;-74
2021/07/11 07:04:22;;;;;;;5.43;2.95;;;22.10;61.90;;;;;;5041134;28;20032;-74
2021/07/11 07:06:49;;;;;;;8.15;3.60;;;22.10;62.00;;;;;;5038324;28;20029;-74
2021/07/11 07:09:15;;;;;;;6.10;3.35;;;22.10;61.90;;;;;;5035100;28;20392;-74
2021/07/11 07:11:42;;;;;;;9.75;4.50;;;22.10;61.90;;;;;;5035158;28;20040;-74
2021/07/11 07:14:07;;;;;;;5.75;3.20;;;22.10;61.90;;;;;;5033237;28;20120;-74
2021/07/11 07:16:33;;;;;;;9.32;3.63;;;22.10;61.90;;;;;;5035120;28;20069;-74
2021/07/11 07:18:58;;;;;;;6.35;3.67;;;22.10;61.90;;;;;;5036267;28;20488;-74
2021/07/11 07:21:24;;;;;;;7.93;3.67;;;22.20;61.90;;;;;;5035395;28;20067;-73
2021/07/11 07:23:49;;;;;;;7.78;3.75;;;22.10;62.00;;;;;;5034669;28;20017;-73
2021/07/11 07:26:15;;;;;;;7.60;3.42;;;22.10;61.90;;;;;;5034596;28;20048;-73
2021/07/11 07:28:41;;;;;;;10.43;3.88;;;22.10;61.90;;;;;;5033630;28;20032;-74
2021/07/11 07:31:06;;;;;;;7.72;3.65;;;22.10;62.00;;;;;;5034237;28;20060;-73
2021/07/11 07:33:32;;;;;;;6.30;3.60;;;22.10;61.90;;;;;;5034053;28;20453;-73
2021/07/11 07:35:57;;;;;;;5.50;3.25;;;22.10;61.90;;;;;;5034100;28;20112;-73
2021/07/11 07:38:23;;;;;;;6.57;3.83;;;22.10;61.90;;;;;;5034146;28;20021;-73
2021/07/11 07:40:49;;;;;;;8.38;3.85;;;22.10;61.80;;;;;;5034013;28;20555;-73
2021/07/11 07:43:15;;;;;;;5.60;3.58;;;22.10;61.90;;;;;;5033984;28;20046;-73
2021/07/11 07:45:43;;;;;;;6.50;3.83;;;22.10;61.90;;;;;;5034151;28;20363;-73
2021/07/11 07:48:10;;;;;;;6.00;3.60;;;22.10;61.90;;;;;;5033926;28;20484;-74
2021/07/11 07:50:37;;;;;;;6.07;4.00;;;22.10;61.90;;;;;;5033682;28;20132;-73
2021/07/11 07:53:02;;;;;;;6.30;3.63;;;22.10;61.90;;;;;;5033888;28;20029;-75
2021/07/11 07:55:30;;;;;;;5.88;3.42;;;22.10;61.80;;;;;;5033848;28;20527;-73
2021/07/11 07:57:56;;;;;;;6.53;4.03;;;22.20;61.80;;;;;;5033843;28;20108;-74
2021/07/11 08:00:21;;;;;;;6.43;4.07;;;22.10;61.70;;;;;;5033639;28;20121;-74
2021/07/11 08:02:47;;;;;;;6.40;3.80;;;22.20;61.70;;;;;;5033699;28;20030;-74
2021/07/11 08:05:13;;;;;;;7.13;4.20;;;22.20;61.60;;;;;;5033974;28;20461;-74
2021/07/11 08:07:39;;;;;;;7.57;4.55;;;22.20;61.60;;;;;;5033503;28;20537;-74
2021/07/11 08:10:06;;;;;;;7.05;4.38;;;22.20;61.60;;;;;;5033395;28;20370;-74
2021/07/11 08:12:32;;;;;;;5.47;3.47;;;22.20;61.60;;;;;;5033408;28;20380;-73
2021/07/11 08:14:58;;;;;;;5.63;3.80;;;22.20;61.70;;;;;;5033426;28;20104;-74
2021/07/11 08:17:23;;;;;;;5.93;3.85;;;22.20;61.70;;;;;;5033415;28;20022;-74
2021/07/11 08:19:49;;;;;;;7.00;4.18;;;22.20;61.70;;;;;;5033309;28;20056;-74
2021/07/11 08:22:14;;;;;;;6.13;3.72;;;22.20;61.70;;;;;;5033538;28;20116;-73
2021/07/11 08:24:40;;;;;;;7.07;4.70;;;22.20;61.70;;;;;;5033765;28;20049;-73
2021/07/11 08:27:06;;;;;;;6.63;4.10;;;22.20;61.70;;;;;;5033253;28;20033;-73
2021/07/11 08:29:32;;;;;;;6.70;4.00;;;22.20;61.70;;;;;;5033333;28;20444;-73
2021/07/11 08:31:58;;;;;;;6.30;3.90;;;22.20;61.70;;;;;;5033387;28;20037;-73
2021/07/11 08:34:24;;;;;;;6.53;4.10;;;22.20;61.70;;;;;;5033102;28;20512;-74
2021/07/11 08:36:52;;;;;;;6.82;4.35;;;22.20;61.70;;;;;;5033228;28;20037;-73
2021/07/11 08:39:19;;;;;;;6.90;4.00;;;22.20;61.70;;;;;;5032717;28;20045;-74
2021/07/11 08:41:45;;;;;;;7.00;4.32;;;22.30;61.70;;;;;;5032699;28;20044;-72
2021/07/11 08:44:11;;;;;;;7.25;3.80;;;22.20;61.70;;;;;;5033080;28;20091;-73
2021/07/11 08:46:38;;;;;;;8.77;4.55;;;22.30;61.70;;;;;;5033264;28;20473;-73
2021/07/11 08:49:05;;;;;;;7.63;4.85;;;22.30;61.70;;;;;;5033320;28;20056;-74
2021/07/11 08:51:32;;;;;;;7.53;4.72;;;22.30;61.70;;;;;;5033097;28;20029;-74
2021/07/11 08:53:58;;;;;;;6.88;4.60;;;22.30;61.70;;;;;;5033044;28;20041;-73
2021/07/11 08:56:25;;;;;;;7.63;4.55;;;22.30;61.70;;;;;;5032980;28;20095;-73
2021/07/11 08:58:56;;;;;;;6.82;4.50;;;22.30;61.70;;;;;;5033164;28;20021;-74
2021/07/11 09:01:24;;;;;;;6.82;4.70;;;22.30;61.70;;;;;;5048190;28;20500;-74
2021/07/11 09:04:10;;;;;;;7.47;4.75;;;22.30;61.70;;;;;;5032986;28;20029;-73
2021/07/11 09:06:44;;;;;;;7.13;4.75;;;22.30;61.70;;;;;;5032942;28;20103;-74
2021/07/11 09:09:12;;;;;;;;;;;22.30;61.70;;;;;;5035926;28;20014;-74
2021/07/11 09:11:49;;;;;;;7.00;4.95;;;22.30;61.80;;;;;;5037685;28;19912;-73
2021/07/11 09:14:23;;;;;;;6.90;4.75;;;22.30;61.80;;;;;;5032917;28;20025;-74
2021/07/11 09:16:50;;;;;;;8.98;5.00;;;22.30;61.80;;;;;;5032822;28;20021;-74
2021/07/11 09:19:43;;;;;;;8.43;5.22;;;22.30;61.80;;;;;;5032783;28;20036;-73
2021/07/11 09:22:14;;;;;;;7.65;5.05;;;22.30;61.70;;;;;;5031762;28;20107;-74
2021/07/11 09:24:50;;;;;;;8.23;5.28;;;22.30;61.70;;;;;;5033138;28;20112;-74
2021/07/11 09:27:19;;;;;;;7.50;4.85;;;22.40;61.70;;;;;;5032888;28;20029;-74
2021/07/11 09:29:46;;;;;;;7.60;5.07;;;22.30;61.70;;;;;;5032657;28;20499;-73
2021/07/11 09:32:22;;;;;;;8.48;5.57;;;22.40;61.70;;;;;;5032421;28;20040;-73
2021/07/11 09:34:47;;;;;;;8.15;5.47;;;22.40;61.70;;;;;;5032800;28;20073;-73
2021/07/11 09:37:16;;;;;;;8.73;5.95;;;22.40;61.70;;;;;;5032515;28;20115;-73
2021/07/11 09:39:57;;;;;;;8.68;5.63;;;22.40;61.70;;;;;;5032749;28;20029;-73
2021/07/11 09:42:29;;;;;;;8.32;5.53;;;22.40;61.70;;;;;;5032568;28;20485;-73
2021/07/11 09:44:56;;;;;;;7.13;5.05;;;22.40;61.80;;;;;;5032539;28;20034;-73
2021/07/11 09:47:24;;;;;;;8.75;5.57;;;22.40;61.70;;;;;;5032551;28;20100;-73
2021/07/11 09:50:18;;;;;;;8.43;5.80;;;22.40;61.70;;;;;;5039200;28;20081;-74
2021/07/11 09:52:46;;;;;;;9.32;6.07;;;22.40;61.70;;;;;;5035549;28;20037;-74
2021/07/11 09:55:13;;;;;;;8.23;5.88;;;22.40;61.70;;;;;;5036349;28;20033;-73
2021/07/11 09:57:44;;;;;;;8.25;5.88;;;22.40;61.70;;;;;;5036408;28;20033;-73
2021/07/11 10:00:19;;;;;;;7.70;5.05;;;22.40;61.70;;;;;;5036297;28;20022;-73
2021/07/11 10:02:46;;;;;;;9.23;6.00;;;22.40;61.70;;;;;;5036212;28;20392;-73
2021/07/11 10:05:14;;;;;;;8.27;5.70;;;22.40;61.70;;;;;;5035923;28;20029;-73
2021/07/11 10:07:40;;;;;;;7.65;5.45;;;22.40;61.70;;;;;;5036673;28;20029;-73
2021/07/11 10:10:07;;;;;;;8.45;5.35;;;22.50;61.70;;;;;;5035801;28;20363;-74
2021/07/11 10:12:33;;;;;;;8.02;5.53;;;22.40;61.70;;;;;;5036016;28;20029;-73
2021/07/11 10:14:59;;;;;;;8.02;5.53;;;22.50;61.70;;;;;;5036595;28;20021;-73
2021/07/11 10:17:27;;;;;;;8.27;6.00;;;22.50;61.70;;;;;;5044623;28;20057;-73
2021/07/11 10:19:54;;;;;;;8.93;6.15;;;22.50;61.60;;;;;;5035669;28;20034;-73
2021/07/11 10:22:20;;;;;;;8.07;5.88;;;22.50;61.60;;;;;;5035803;28;20359;-73
2021/07/11 10:24:48;;;;;;;7.82;5.50;;;22.50;61.60;;;;;;5035922;28;20022;-73
2021/07/11 10:27:23;;;;;;;7.85;5.30;;;22.50;61.60;;;;;;5035827;28;20029;-73
2021/07/11 10:29:51;;;;;;;8.75;5.60;;;22.50;61.60;;;;;;5035801;28;20033;-74
2021/07/11 10:32:29;;;;;;;8.35;5.93;;;22.50;61.60;;;;;;5035376;28;20030;-73
2021/07/11 10:35:07;;;;;;;8.05;5.20;;;22.50;61.60;;;;;;5035678;28;20160;-74
2021/07/11 10:37:45;;;;;;;9.35;5.82;;;22.60;61.50;;;;;;5035599;28;20025;-74
2021/07/11 10:40:15;;;;;;;8.65;5.78;;;22.60;61.50;;;;;;5035422;28;20044;-74
2021/07/11 10:42:41;;;;;;;7.72;5.50;;;22.60;61.50;;;;;;5033944;28;20021;-73
2021/07/11 10:45:12;;;;;;;8.32;5.25;;;22.60;61.50;;;;;;5035200;28;20030;-74
2021/07/11 10:47:38;;;;;;;7.57;5.22;;;22.60;61.50;;;;;;5035176;28;20163;-74
2021/07/11 10:50:20;;;;;;;8.02;5.07;;;22.60;61.50;;;;;;5035259;28;20021;-74
2021/07/11 10:52:46;;;;;;;6.63;4.40;;;22.60;61.40;;;;;;5035575;28;20033;-74
2021/07/11 10:55:14;;;;;;;10.30;6.38;;;22.70;61.40;;;;;;5035120;28;20018;-73
2021/07/11 10:57:39;;;;;;;8.88;6.03;;;22.70;61.40;;;;;;5035146;28;20535;-74
2021/07/11 11:00:13;;;;;;;8.48;5.95;;;22.70;61.40;;;;;;5034878;28;20069;-73
2021/07/11 11:02:39;;;;;;;7.75;5.40;;;22.70;61.40;;;;;;5032985;28;20026;-73
2021/07/11 11:05:12;;;;;;;7.82;5.63;;;22.70;61.50;;;;;;5034764;28;20100;-73
2021/07/11 11:07:43;;;;;;;8.80;6.00;;;22.70;61.50;;;;;;5034884;28;20095;-73
2021/07/11 11:10:27;;;;;;;8.27;5.57;;;22.70;61.50;;;;;;5035175;28;20029;-73
2021/07/11 11:13:10;;;;;;;;;;;22.70;61.50;;;;;;5035383;28;20024;-73
2021/07/11 11:15:40;;;;;;;10.32;6.20;;;22.60;61.40;;;;;;5035290;28;20368;-73
2021/07/11 11:18:38;;;;;;;9.55;5.95;;;22.70;61.50;;;;;;5035847;28;20025;-73
2021/07/11 11:21:07;;;;;;;9.20;5.88;;;22.70;61.50;;;;;;5035698;28;20117;-73
2021/07/11 11:23:39;;;;;;;8.40;5.50;;;22.70;61.50;;;;;;5035833;28;20021;-73
2021/07/11 11:26:06;;;;;;;8.57;6.10;;;22.70;61.50;;;;;;5036275;28;20530;-73
2021/07/11 11:28:40;;;;;;;8.05;5.68;;;22.70;61.50;;;;;;5035713;28;20025;-73
2021/07/11 11:31:13;;;;;;;7.65;5.43;;;22.70;61.40;;;;;;5035566;28;20032;-74
2021/07/11 11:34:08;;;;;;;8.60;5.45;;;22.70;61.40;;;;;;5035619;28;20539;-73
2021/07/11 11:36:43;;;;;;;8.43;5.65;;;22.70;61.40;;;;;;5035423;28;20030;-73
2021/07/11 11:39:19;;;;;;;8.40;5.70;;;22.70;61.40;;;;;;5035401;28;20044;-74
2021/07/11 11:41:46;;;;;;;8.95;5.90;;;22.70;61.40;;;;;;5035088;28;20037;-73
2021/07/11 11:44:17;;;;;;;8.45;5.75;;;22.70;61.50;;;;;;5034833;28;20385;-73
2021/07/11 11:46:45;;;;;;;8.48;5.60;;;22.70;61.40;;;;;;5034633;28;20036;-73
2021/07/11 11:49:13;;;;;;;8.63;5.72;;;22.80;61.40;;;;;;5033511;28;20037;-75
2021/07/11 11:51:44;;;;;;;8.38;6.18;;;22.70;61.40;;;;;;5034364;28;20022;-75
2021/07/11 11:54:10;;;;;;;8.02;5.68;;;22.70;61.30;;;;;;5033780;28;20372;-74
2021/07/11 11:56:37;;;;;;;8.07;5.53;;;22.80;61.30;;;;;;5033801;28;20022;-74
2021/07/11 11:59:04;;;;;;;8.90;5.85;;;22.80;61.30;;;;;;5033753;28;20075;-75
2021/07/11 12:01:35;;;;;;;8.05;5.20;;;22.80;61.30;;;;;;5033958;28;20037;-74
2021/07/11 12:04:10;;;;;;;8.23;5.50;;;22.80;61.30;;;;;;5033917;28;20025;-74
2021/07/11 12:06:36;;;;;;;8.93;5.80;;;22.80;61.30;;;;;;5033641;28;20374;-75
2021/07/11 12:09:02;;;;;;;8.25;6.00;;;22.80;61.30;;;;;;5033550;28;20070;-75
2021/07/11 12:11:27;;;;;;;8.52;5.35;;;22.90;61.30;;;;;;5033587;28;20028;-74
2021/07/11 12:14:04;;;;;;;8.60;6.13;;;22.90;61.30;;;;;;5033388;28;20038;-74
2021/07/11 12:16:29;;;;;;;8.02;5.10;;;22.90;61.20;;;;;;5033548;28;20022;-74
2021/07/11 12:18:56;;;;;;;8.45;5.70;;;22.90;61.10;;;;;;5033550;28;20025;-74
2021/07/11 12:21:31;;;;;;;8.15;5.25;;;22.90;61.10;;;;;;5033455;28;20126;-74
2021/07/11 12:24:11;;;;;;;8.45;5.85;;;23.00;61.10;;;;;;5033365;28;20034;-75
2021/07/11 12:26:41;;;;;;;8.00;5.60;;;23.00;61.10;;;;;;5033424;28;20033;-74
2021/07/11 12:29:08;;;;;;;7.88;5.38;;;23.00;61.00;;;;;;5033370;28;20131;-75
2021/07/11 12:31:34;;;;;;;6.90;4.80;;;23.00;61.10;;;;;;5033614;28;20049;-74
2021/07/11 12:34:08;;;;;;;7.47;5.20;;;23.00;60.90;;;;;;5033288;28;20038;-76
2021/07/11 12:36:38;;;;;;;7.90;5.40;;;23.00;60.90;;;;;;5033783;28;20139;-74
2021/07/11 12:39:18;;;;;;;6.63;4.80;;;23.10;61.00;;;;;;5033943;28;20025;-75
2021/07/11 12:41:44;;;;;;;7.90;4.78;;;23.10;60.90;;;;;;5039523;28;20093;-75
2021/07/11 12:44:09;;;;;;;7.28;5.15;;;23.10;60.80;;;;;;5044272;28;20026;-76
2021/07/11 12:46:35;;;;;;;7.60;5.55;;;23.10;60.80;;;;;;5044215;28;20029;-75
2021/07/11 12:49:09;;;;;;;7.90;5.47;;;23.10;60.80;;;;;;5044529;28;20018;-76
2021/07/11 12:51:48;;;;;;;8.05;5.82;;;23.20;60.70;;;;;;5044912;28;20028;-75
2021/07/11 12:54:14;;;;;;;8.02;5.72;;;23.20;60.60;;;;;;5046869;28;20045;-75